sensor_id;sensor_type;location;lat;lon;timestamp;P1;durP1;ratioP1;P2;durP2;ratioP2
17504;SDS011;8870;50.950;11.762;2024-01-10T00:03:11;36.07;;;19.90;;
17504;SDS011;8870;50.950;11.762;2024-01-10T00:08:42;39.83;;;20.80;;
17504;SDS011;8870;50.950;11.762;2024-01-10T00:14:00;35.63;;;21.10;;
17504;SDS011;8870;50.950;11.762;2024-01-10T00:19:35;37.87;;;22.60;;
17504;SDS011;8870;50.950;11.762;2024-01-10T00:24:53;39.77;;;21.90;;
17504;SDS011;8870;50.950;11.762;2024-01-10T00:30:25;40.10;;;21.93;;
17504;SDS011;8870;50.950;11.762;2024-01-10T00:35:46;34.43;;;20.40;;
17504;SDS011;8870;50.950;11.762;2024-01-10T00:41:17;38.53;;;22.17;;
17504;SDS011;8870;50.950;11.762;2024-01-10T00:46:35;32.43;;;19.03;;
17504;SDS011;8870;50.950;11.762;2024-01-10T00:52:09;34.23;;;18.57;;
17504;SDS011;8870;50.950;11.762;2024-01-10T00:57:27;33.93;;;19.03;;
17504;SDS011;8870;50.950;11.762;2024-01-10T01:02:59;31.70;;;18.70;;
17504;SDS011;8870;50.950;11.762;2024-01-10T01:08:20;33.97;;;17.87;;
17504;SDS011;8870;50.950;11.762;2024-01-10T01:13:51;34.03;;;19.00;;
17504;SDS011;8870;50.950;11.762;2024-01-10T01:19:09;32.63;;;19.03;;
17504;SDS011;8870;50.950;11.762;2024-01-10T01:24:43;36.27;;;20.47;;
17504;SDS011;8870;50.950;11.762;2024-01-10T01:30:01;36.37;;;21.27;;
17504;SDS011;8870;50.950;11.762;2024-01-10T01:35:33;35.17;;;20.03;;
17504;SDS011;8870;50.950;11.762;2024-01-10T01:40:54;37.67;;;21.07;;
17504;SDS011;8870;50.950;11.762;2024-01-10T01:46:27;34.90;;;21.47;;
17504;SDS011;8870;50.950;11.762;2024-01-10T01:51:45;34.47;;;20.47;;
17504;SDS011;8870;50.950;11.762;2024-01-10T01:57:20;32.93;;;20.43;;
17504;SDS011;8870;50.950;11.762;2024-01-10T02:02:38;37.87;;;21.40;;
17504;SDS011;8870;50.950;11.762;2024-01-10T02:08:10;36.00;;;21.23;;
17504;SDS011;8870;50.950;11.762;2024-01-10T02:13:31;37.37;;;22.00;;
17504;SDS011;8870;50.950;11.762;2024-01-10T02:19:16;36.97;;;20.53;;
17504;SDS011;8870;50.950;11.762;2024-01-10T02:24:36;36.53;;;21.75;;
17504;SDS011;8870;50.950;11.762;2024-01-10T02:30:10;34.87;;;20.53;;
17504;SDS011;8870;50.950;11.762;2024-01-10T02:35:28;36.10;;;21.47;;
17504;SDS011;8870;50.950;11.762;2024-01-10T02:40:59;34.13;;;19.20;;
17504;SDS011;8870;50.950;11.762;2024-01-10T02:46:20;33.67;;;19.37;;
17504;SDS011;8870;50.950;11.762;2024-01-10T02:51:52;35.60;;;21.03;;
17504;SDS011;8870;50.950;11.762;2024-01-10T02:57:10;34.87;;;20.27;;
17504;SDS011;8870;50.950;11.762;2024-01-10T03:02:44;32.30;;;19.97;;
17504;SDS011;8870;50.950;11.762;2024-01-10T03:08:02;34.73;;;20.33;;
17504;SDS011;8870;50.950;11.762;2024-01-10T03:13:34;32.53;;;19.43;;
17504;SDS011;8870;50.950;11.762;2024-01-10T03:18:56;35.80;;;19.87;;
17504;SDS011;8870;50.950;11.762;2024-01-10T03:24:27;37.43;;;22.17;;
17504;SDS011;8870;50.950;11.762;2024-01-10T03:29:45;37.03;;;19.80;;
17504;SDS011;8870;50.950;11.762;2024-01-10T03:35:20;35.57;;;20.57;;
17504;SDS011;8870;50.950;11.762;2024-01-10T03:40:38;37.80;;;21.97;;
17504;SDS011;8870;50.950;11.762;2024-01-10T03:46:09;34.70;;;21.07;;
17504;SDS011;8870;50.950;11.762;2024-01-10T03:51:31;35.33;;;21.30;;
17504;SDS011;8870;50.950;11.762;2024-01-10T03:57:03;37.47;;;20.87;;
17504;SDS011;8870;50.950;11.762;2024-01-10T04:02:22;38.67;;;21.93;;
17504;SDS011;8870;50.950;11.762;2024-01-10T04:07:56;37.07;;;20.93;;
17504;SDS011;8870;50.950;11.762;2024-01-10T04:13:15;37.90;;;21.43;;
17504;SDS011;8870;50.950;11.762;2024-01-10T04:18:47;36.00;;;21.13;;
17504;SDS011;8870;50.950;11.762;2024-01-10T04:24:15;38.20;;;20.60;;
17504;SDS011;8870;50.950;11.762;2024-01-10T04:29:46;36.83;;;21.10;;
17504;SDS011;8870;50.950;11.762;2024-01-10T04:35:06;35.63;;;19.67;;
17504;SDS011;8870;50.950;11.762;2024-01-10T04:40:42;34.90;;;20.43;;
17504;SDS011;8870;50.950;11.762;2024-01-10T04:46:00;31.83;;;18.40;;
17504;SDS011;8870;50.950;11.762;2024-01-10T04:51:32;33.77;;;19.60;;
17504;SDS011;8870;50.950;11.762;2024-01-10T04:56:53;35.77;;;20.90;;
17504;SDS011;8870;50.950;11.762;2024-01-10T05:02:25;37.73;;;21.83;;
17504;SDS011;8870;50.950;11.762;2024-01-10T05:07:43;39.33;;;23.17;;
17504;SDS011;8870;50.950;11.762;2024-01-10T05:13:18;46.57;;;24.10;;
17504;SDS011;8870;50.950;11.762;2024-01-10T05:18:38;48.53;;;24.33;;
17504;SDS011;8870;50.950;11.762;2024-01-10T05:24:16;44.30;;;24.07;;
17504;SDS011;8870;50.950;11.762;2024-01-10T05:29:37;52.03;;;26.47;;
17504;SDS011;8870;50.950;11.762;2024-01-10T05:35:09;44.83;;;23.67;;
17504;SDS011;8870;50.950;11.762;2024-01-10T05:40:27;38.53;;;21.77;;
17504;SDS011;8870;50.950;11.762;2024-01-10T05:46:02;36.13;;;21.67;;
17504;SDS011;8870;50.950;11.762;2024-01-10T05:51:20;35.20;;;20.47;;
17504;SDS011;8870;50.950;11.762;2024-01-10T05:56:51;35.37;;;21.20;;
17504;SDS011;8870;50.950;11.762;2024-01-10T06:02:12;38.30;;;21.73;;
17504;SDS011;8870;50.950;11.762;2024-01-10T06:07:43;37.83;;;20.67;;
17504;SDS011;8870;50.950;11.762;2024-01-10T06:13:14;35.97;;;21.13;;
17504;SDS011;8870;50.950;11.762;2024-01-10T06:18:35;39.47;;;20.60;;
17504;SDS011;8870;50.950;11.762;2024-01-10T06:24:06;35.73;;;21.00;;
17504;SDS011;8870;50.950;11.762;2024-01-10T06:29:24;37.47;;;20.17;;
17504;SDS011;8870;50.950;11.762;2024-01-10T06:34:59;38.00;;;21.10;;
17504;SDS011;8870;50.950;11.762;2024-01-10T06:40:19;37.87;;;21.83;;
17504;SDS011;8870;50.950;11.762;2024-01-10T06:45:51;35.97;;;22.83;;
17504;SDS011;8870;50.950;11.762;2024-01-10T06:51:12;37.20;;;21.27;;
17504;SDS011;8870;50.950;11.762;2024-01-10T06:56:43;36.33;;;21.17;;
17504;SDS011;8870;50.950;11.762;2024-01-10T07:02:01;36.50;;;21.07;;
17504;SDS011;8870;50.950;11.762;2024-01-10T07:07:35;35.80;;;20.93;;
17504;SDS011;8870;50.950;11.762;2024-01-10T07:12:53;38.43;;;21.70;;
17504;SDS011;8870;50.950;11.762;2024-01-10T07:18:26;33.83;;;20.57;;
17504;SDS011;8870;50.950;11.762;2024-01-10T07:23:48;35.27;;;20.80;;
17504;SDS011;8870;50.950;11.762;2024-01-10T07:29:21;35.60;;;20.53;;
17504;SDS011;8870;50.950;11.762;2024-01-10T07:34:39;37.97;;;20.43;;
17504;SDS011;8870;50.950;11.762;2024-01-10T07:40:13;36.23;;;21.60;;
17504;SDS011;8870;50.950;11.762;2024-01-10T07:45:31;37.07;;;21.73;;
17504;SDS011;8870;50.950;11.762;2024-01-10T07:51:02;40.30;;;22.23;;
17504;SDS011;8870;50.950;11.762;2024-01-10T07:56:24;36.40;;;21.10;;
17504;SDS011;8870;50.950;11.762;2024-01-10T08:01:55;35.87;;;21.13;;
17504;SDS011;8870;50.950;11.762;2024-01-10T08:07:21;34.90;;;20.83;;
17504;SDS011;8870;50.950;11.762;2024-01-10T08:12:57;38.33;;;21.70;;
17504;SDS011;8870;50.950;11.762;2024-01-10T08:18:15;39.60;;;22.90;;
17504;SDS011;8870;50.950;11.762;2024-01-10T08:23:46;37.93;;;20.90;;
17504;SDS011;8870;50.950;11.762;2024-01-10T08:29:07;43.10;;;24.00;;
17504;SDS011;8870;50.950;11.762;2024-01-10T08:34:39;46.77;;;25.20;;
17504;SDS011;8870;50.950;11.762;2024-01-10T08:39:59;48.53;;;25.60;;
17504;SDS011;8870;50.950;11.762;2024-01-10T08:45:36;50.23;;;26.37;;
17504;SDS011;8870;50.950;11.762;2024-01-10T08:50:54;56.10;;;28.60;;
17504;SDS011;8870;50.950;11.762;2024-01-10T08:56:26;52.97;;;28.10;;
17504;SDS011;8870;50.950;11.762;2024-01-10T09:01:47;53.00;;;28.10;;
17504;SDS011;8870;50.950;11.762;2024-01-10T09:07:18;55.07;;;28.27;;
17504;SDS011;8870;50.950;11.762;2024-01-10T09:12:49;56.63;;;28.60;;
17504;SDS011;8870;50.950;11.762;2024-01-10T09:18:10;54.67;;;27.23;;
17504;SDS011;8870;50.950;11.762;2024-01-10T09:23:41;55.90;;;28.57;;
17504;SDS011;8870;50.950;11.762;2024-01-10T09:28:59;57.77;;;29.87;;
17504;SDS011;8870;50.950;11.762;2024-01-10T09:34:33;55.83;;;28.33;;
17504;SDS011;8870;50.950;11.762;2024-01-10T09:39:51;54.47;;;28.27;;
17504;SDS011;8870;50.950;11.762;2024-01-10T09:45:22;58.10;;;27.37;;
17504;SDS011;8870;50.950;11.762;2024-01-10T09:50:46;52.57;;;28.73;;
17504;SDS011;8870;50.950;11.762;2024-01-10T09:56:20;56.65;;;31.77;;
17504;SDS011;8870;50.950;11.762;2024-01-10T10:01:38;59.87;;;30.17;;
17504;SDS011;8870;50.950;11.762;2024-01-10T10:07:12;54.77;;;29.90;;
17504;SDS011;8870;50.950;11.762;2024-01-10T10:12:41;64.73;;;32.30;;
17504;SDS011;8870;50.950;11.762;2024-01-10T10:18:14;55.67;;;29.03;;
17504;SDS011;8870;50.950;11.762;2024-01-10T10:23:36;54.63;;;30.07;;
17504;SDS011;8870;50.950;11.762;2024-01-10T10:29:08;59.70;;;30.03;;
17504;SDS011;8870;50.950;11.762;2024-01-10T10:34:30;60.47;;;32.67;;
17504;SDS011;8870;50.950;11.762;2024-01-10T10:40:04;59.20;;;31.87;;
17504;SDS011;8870;50.950;11.762;2024-01-10T10:45:24;58.10;;;30.67;;
17504;SDS011;8870;50.950;11.762;2024-01-10T10:50:58;48.30;;;27.35;;
17504;SDS011;8870;50.950;11.762;2024-01-10T10:56:25;55.03;;;29.05;;
17504;SDS011;8870;50.950;11.762;2024-01-10T11:02:01;57.22;;;30.23;;
17504;SDS011;8870;50.950;11.762;2024-01-10T11:07:20;54.22;;;29.80;;
17504;SDS011;8870;50.950;11.762;2024-01-10T11:13:03;54.28;;;29.63;;
17504;SDS011;8870;50.950;11.762;2024-01-10T11:24:17;62.53;;;30.25;;
17504;SDS011;8870;50.950;11.762;2024-01-10T11:29:40;50.55;;;29.60;;
17504;SDS011;8870;50.950;11.762;2024-01-10T11:35:15;52.95;;;29.73;;
17504;SDS011;8870;50.950;11.762;2024-01-10T11:40:46;57.25;;;31.63;;
17504;SDS011;8870;50.950;11.762;2024-01-10T11:46:26;54.05;;;31.90;;
17504;SDS011;8870;50.950;11.762;2024-01-10T11:51:44;49.23;;;29.87;;
17504;SDS011;8870;50.950;11.762;2024-01-10T11:57:21;53.53;;;29.75;;
17504;SDS011;8870;50.950;11.762;2024-01-10T12:02:42;54.95;;;30.20;;
17504;SDS011;8870;50.950;11.762;2024-01-10T12:08:18;48.05;;;29.88;;
17504;SDS011;8870;50.950;11.762;2024-01-10T12:13:36;51.72;;;31.25;;
17504;SDS011;8870;50.950;11.762;2024-01-10T12:19:10;52.30;;;31.48;;
17504;SDS011;8870;50.950;11.762;2024-01-10T12:24:28;53.25;;;32.28;;
17504;SDS011;8870;50.950;11.762;2024-01-10T12:30:00;49.17;;;30.05;;
17504;SDS011;8870;50.950;11.762;2024-01-10T12:35:23;55.60;;;31.30;;
17504;SDS011;8870;50.950;11.762;2024-01-10T12:40:54;49.22;;;29.80;;
17504;SDS011;8870;50.950;11.762;2024-01-10T12:46:12;52.00;;;30.05;;
17504;SDS011;8870;50.950;11.762;2024-01-10T12:51:48;49.20;;;30.55;;
17504;SDS011;8870;50.950;11.762;2024-01-10T12:57:06;50.80;;;29.88;;
17504;SDS011;8870;50.950;11.762;2024-01-10T13:02:37;48.47;;;29.73;;
17504;SDS011;8870;50.950;11.762;2024-01-10T13:07:58;46.67;;;28.77;;
17504;SDS011;8870;50.950;11.762;2024-01-10T13:13:30;49.20;;;29.88;;
17504;SDS011;8870;50.950;11.762;2024-01-10T13:18:48;49.80;;;29.27;;
17504;SDS011;8870;50.950;11.762;2024-01-10T13:24:23;49.85;;;28.40;;
17504;SDS011;8870;50.950;11.762;2024-01-10T13:29:41;45.35;;;28.83;;
17504;SDS011;8870;50.950;11.762;2024-01-10T13:35:12;45.20;;;27.30;;
17504;SDS011;8870;50.950;11.762;2024-01-10T13:40:34;43.40;;;27.75;;
17504;SDS011;8870;50.950;11.762;2024-01-10T13:46:05;46.65;;;28.42;;
17504;SDS011;8870;50.950;11.762;2024-01-10T13:51:23;39.00;;;27.30;;
17504;SDS011;8870;50.950;11.762;2024-01-10T13:56:58;48.60;;;27.98;;
17504;SDS011;8870;50.950;11.762;2024-01-10T14:02:16;39.95;;;26.27;;
17504;SDS011;8870;50.950;11.762;2024-01-10T14:07:47;42.88;;;27.85;;
17504;SDS011;8870;50.950;11.762;2024-01-10T14:13:08;41.03;;;26.88;;
17504;SDS011;8870;50.950;11.762;2024-01-10T14:18:40;43.33;;;28.23;;
17504;SDS011;8870;50.950;11.762;2024-01-10T14:23:58;43.15;;;26.52;;
17504;SDS011;8870;50.950;11.762;2024-01-10T14:29:34;40.92;;;27.92;;
17504;SDS011;8870;50.950;11.762;2024-01-10T14:34:52;46.25;;;26.90;;
17504;SDS011;8870;50.950;11.762;2024-01-10T14:40:23;44.33;;;28.98;;
17504;SDS011;8870;50.950;11.762;2024-01-10T14:45:57;41.22;;;27.08;;
17504;SDS011;8870;50.950;11.762;2024-01-10T14:51:15;39.60;;;26.23;;
17504;SDS011;8870;50.950;11.762;2024-01-10T14:56:46;43.53;;;27.65;;
17504;SDS011;8870;50.950;11.762;2024-01-10T15:02:08;43.47;;;27.77;;
17504;SDS011;8870;50.950;11.762;2024-01-10T15:07:40;47.35;;;28.65;;
17504;SDS011;8870;50.950;11.762;2024-01-10T15:12:59;46.90;;;30.08;;
17504;SDS011;8870;50.950;11.762;2024-01-10T15:18:33;47.28;;;30.80;;
17504;SDS011;8870;50.950;11.762;2024-01-10T15:23:51;55.10;;;33.83;;
17504;SDS011;8870;50.950;11.762;2024-01-10T15:29:23;53.55;;;32.88;;
17504;SDS011;8870;50.950;11.762;2024-01-10T15:34:45;55.53;;;35.00;;
17504;SDS011;8870;50.950;11.762;2024-01-10T15:40:16;61.03;;;35.38;;
17504;SDS011;8870;50.950;11.762;2024-01-10T15:45:47;52.28;;;34.30;;
17504;SDS011;8870;50.950;11.762;2024-01-10T15:51:08;56.03;;;33.42;;
17504;SDS011;8870;50.950;11.762;2024-01-10T15:56:39;55.80;;;32.85;;
17504;SDS011;8870;50.950;11.762;2024-01-10T16:01:57;52.03;;;32.58;;
17504;SDS011;8870;50.950;11.762;2024-01-10T16:07:32;55.25;;;31.13;;
17504;SDS011;8870;50.950;11.762;2024-01-10T16:12:51;48.30;;;31.33;;
17504;SDS011;8870;50.950;11.762;2024-01-10T16:18:24;52.33;;;32.70;;
17504;SDS011;8870;50.950;11.762;2024-01-10T16:23:46;55.85;;;33.13;;
17504;SDS011;8870;50.950;11.762;2024-01-10T16:29:18;52.53;;;33.28;;
17504;SDS011;8870;50.950;11.762;2024-01-10T16:34:36;53.80;;;32.70;;
17504;SDS011;8870;50.950;11.762;2024-01-10T16:40:10;57.78;;;35.22;;
17504;SDS011;8870;50.950;11.762;2024-01-10T16:51:02;55.15;;;32.92;;
17504;SDS011;8870;50.950;11.762;2024-01-10T16:56:24;53.55;;;33.08;;
17504;SDS011;8870;50.950;11.762;2024-01-10T17:01:55;55.10;;;34.30;;
17504;SDS011;8870;50.950;11.762;2024-01-10T17:07:13;50.60;;;31.30;;
17504;SDS011;8870;50.950;11.762;2024-01-10T17:12:48;53.40;;;32.50;;
17504;SDS011;8870;50.950;11.762;2024-01-10T17:18:19;55.05;;;31.65;;
17504;SDS011;8870;50.950;11.762;2024-01-10T17:23:39;50.47;;;32.55;;
17504;SDS011;8870;50.950;11.762;2024-01-10T17:29:12;53.03;;;33.53;;
17504;SDS011;8870;50.950;11.762;2024-01-10T17:34:30;52.92;;;33.67;;
17504;SDS011;8870;50.950;11.762;2024-01-10T17:40:03;51.95;;;32.20;;
17504;SDS011;8870;50.950;11.762;2024-01-10T17:45:25;50.83;;;31.02;;
17504;SDS011;8870;50.950;11.762;2024-01-10T17:50:57;50.92;;;29.48;;
17504;SDS011;8870;50.950;11.762;2024-01-10T17:56:16;51.20;;;32.42;;
17504;SDS011;8870;50.950;11.762;2024-01-10T18:01:51;50.15;;;29.48;;
17504;SDS011;8870;50.950;11.762;2024-01-10T18:07:11;51.65;;;31.90;;
17504;SDS011;8870;50.950;11.762;2024-01-10T18:12:42;53.35;;;33.15;;
17504;SDS011;8870;50.950;11.762;2024-01-10T18:18:03;52.83;;;32.72;;
17504;SDS011;8870;50.950;11.762;2024-01-10T18:23:34;56.63;;;30.90;;
17504;SDS011;8870;50.950;11.762;2024-01-10T18:28:52;48.60;;;30.27;;
17504;SDS011;8870;50.950;11.762;2024-01-10T18:34:27;55.58;;;31.00;;
17504;SDS011;8870;50.950;11.762;2024-01-10T18:39:45;57.27;;;35.40;;
17504;SDS011;8870;50.950;11.762;2024-01-10T18:45:17;73.75;;;37.28;;
17504;SDS011;8870;50.950;11.762;2024-01-10T18:50:38;68.68;;;37.95;;
17504;SDS011;8870;50.950;11.762;2024-01-10T18:56:10;63.72;;;35.67;;
17504;SDS011;8870;50.950;11.762;2024-01-10T19:01:28;64.40;;;35.22;;
17504;SDS011;8870;50.950;11.762;2024-01-10T19:07:02;68.50;;;36.53;;
17504;SDS011;8870;50.950;11.762;2024-01-10T19:12:20;74.37;;;40.33;;
17504;SDS011;8870;50.950;11.762;2024-01-10T19:17:51;65.23;;;37.53;;
17504;SDS011;8870;50.950;11.762;2024-01-10T19:23:12;59.25;;;34.45;;
17504;SDS011;8870;50.950;11.762;2024-01-10T19:28:43;65.97;;;37.77;;
17504;SDS011;8870;50.950;11.762;2024-01-10T19:34:02;63.00;;;37.23;;
17504;SDS011;8870;50.950;11.762;2024-01-10T19:39:35;76.50;;;40.73;;
17504;SDS011;8870;50.950;11.762;2024-01-10T19:44:55;59.60;;;35.03;;
17504;SDS011;8870;50.950;11.762;2024-01-10T19:50:25;60.03;;;35.60;;
17504;SDS011;8870;50.950;11.762;2024-01-10T19:55:46;58.97;;;35.13;;
17504;SDS011;8870;50.950;11.762;2024-01-10T20:01:17;62.23;;;35.70;;
17504;SDS011;8870;50.950;11.762;2024-01-10T20:06:36;60.37;;;34.93;;
17504;SDS011;8870;50.950;11.762;2024-01-10T20:12:09;61.07;;;35.23;;
17504;SDS011;8870;50.950;11.762;2024-01-10T20:17:29;63.50;;;35.57;;
17504;SDS011;8870;50.950;11.762;2024-01-10T20:23:01;70.47;;;38.90;;
17504;SDS011;8870;50.950;11.762;2024-01-10T20:28:22;67.27;;;39.87;;
17504;SDS011;8870;50.950;11.762;2024-01-10T20:33:53;71.60;;;41.57;;
17504;SDS011;8870;50.950;11.762;2024-01-10T20:39:12;75.13;;;44.13;;
17504;SDS011;8870;50.950;11.762;2024-01-10T20:44:47;73.93;;;42.43;;
17504;SDS011;8870;50.950;11.762;2024-01-10T20:50:06;70.40;;;39.60;;
17504;SDS011;8870;50.950;11.762;2024-01-10T20:55:39;72.10;;;39.80;;
17504;SDS011;8870;50.950;11.762;2024-01-10T21:01:00;76.07;;;42.50;;
17504;SDS011;8870;50.950;11.762;2024-01-10T21:06:31;76.93;;;43.50;;
17504;SDS011;8870;50.950;11.762;2024-01-10T21:11:53;73.87;;;41.10;;
17504;SDS011;8870;50.950;11.762;2024-01-10T21:17:28;81.73;;;42.80;;
17504;SDS011;8870;50.950;11.762;2024-01-10T21:22:46;77.43;;;43.90;;
17504;SDS011;8870;50.950;11.762;2024-01-10T21:28:17;67.50;;;38.77;;
17504;SDS011;8870;50.950;11.762;2024-01-10T21:33:38;72.17;;;40.80;;
17504;SDS011;8870;50.950;11.762;2024-01-10T21:39:09;73.00;;;41.73;;
17504;SDS011;8870;50.950;11.762;2024-01-10T21:44:28;75.73;;;41.97;;
17504;SDS011;8870;50.950;11.762;2024-01-10T21:50:01;71.87;;;40.17;;
17504;SDS011;8870;50.950;11.762;2024-01-10T21:55:20;70.93;;;40.90;;
17504;SDS011;8870;50.950;11.762;2024-01-10T22:00:50;68.47;;;39.60;;
17504;SDS011;8870;50.950;11.762;2024-01-10T22:06:11;64.03;;;36.83;;
17504;SDS011;8870;50.950;11.762;2024-01-10T22:11:42;63.93;;;37.77;;
17504;SDS011;8870;50.950;11.762;2024-01-10T22:17:01;61.93;;;37.10;;
17504;SDS011;8870;50.950;11.762;2024-01-10T22:22:34;60.33;;;35.53;;
17504;SDS011;8870;50.950;11.762;2024-01-10T22:27:53;59.23;;;34.23;;
17504;SDS011;8870;50.950;11.762;2024-01-10T22:33:23;60.93;;;35.87;;
17504;SDS011;8870;50.950;11.762;2024-01-10T22:38:44;63.97;;;35.97;;
17504;SDS011;8870;50.950;11.762;2024-01-10T22:44:15;68.60;;;36.57;;
17504;SDS011;8870;50.950;11.762;2024-01-10T22:49:33;66.23;;;36.90;;
17504;SDS011;8870;50.950;11.762;2024-01-10T22:55:07;66.77;;;37.07;;
17504;SDS011;8870;50.950;11.762;2024-01-10T23:00:25;69.67;;;39.47;;
17504;SDS011;8870;50.950;11.762;2024-01-10T23:05:56;68.63;;;38.83;;
17504;SDS011;8870;50.950;11.762;2024-01-10T23:11:17;66.40;;;37.13;;
17504;SDS011;8870;50.950;11.762;2024-01-10T23:16:48;74.03;;;41.00;;
17504;SDS011;8870;50.950;11.762;2024-01-10T23:22:07;63.53;;;36.43;;
17504;SDS011;8870;50.950;11.762;2024-01-10T23:27:41;60.30;;;34.63;;
17504;SDS011;8870;50.950;11.762;2024-01-10T23:33:00;57.33;;;34.10;;
17504;SDS011;8870;50.950;11.762;2024-01-10T23:38:30;56.00;;;34.63;;
17504;SDS011;8870;50.950;11.762;2024-01-10T23:43:51;60.10;;;35.80;;
17504;SDS011;8870;50.950;11.762;2024-01-10T23:49:23;58.67;;;34.10;;
17504;SDS011;8870;50.950;11.762;2024-01-10T23:54:41;58.17;;;34.13;;
